sensor_id;sensor_type;location;lat;lon;timestamp;P1;durP1;ratioP1;P2;durP2;ratioP2
48317;SDS011;34127;47.412;9.730;2022-07-23T00:01:27;14.98;;;9.30;;
48317;SDS011;34127;47.412;9.730;2022-07-23T00:03:54;12.63;;;9.75;;
48317;SDS011;34127;47.412;9.730;2022-07-23T00:06:20;13.98;;;9.95;;
48317;SDS011;34127;47.412;9.730;2022-07-23T00:08:46;13.50;;;9.50;;
48317;SDS011;34127;47.412;9.730;2022-07-23T00:11:13;13.57;;;9.07;;
48317;SDS011;34127;47.412;9.730;2022-07-23T00:13:39;18.40;;;9.93;;
48317;SDS011;34127;47.412;9.730;2022-07-23T00:16:05;13.23;;;10.10;;
48317;SDS011;34127;47.412;9.730;2022-07-23T00:18:31;13.50;;;10.02;;
48317;SDS011;34127;47.412;9.730;2022-07-23T00:20:57;14.68;;;10.00;;
48317;SDS011;34127;47.412;9.730;2022-07-23T00:23:23;13.95;;;10.25;;
48317;SDS011;34127;47.412;9.730;2022-07-23T00:25:54;13.10;;;10.57;;
48317;SDS011;34127;47.412;9.730;2022-07-23T00:28:20;14.88;;;10.30;;
48317;SDS011;34127;47.412;9.730;2022-07-23T00:30:46;13.13;;;9.80;;
48317;SDS011;34127;47.412;9.730;2022-07-23T00:33:12;18.23;;;10.27;;
48317;SDS011;34127;47.412;9.730;2022-07-23T00:35:39;13.13;;;9.65;;
48317;SDS011;34127;47.412;9.730;2022-07-23T00:38:06;13.23;;;10.23;;
48317;SDS011;34127;47.412;9.730;2022-07-23T00:40:32;14.73;;;9.98;;
48317;SDS011;34127;47.412;9.730;2022-07-23T00:42:59;13.32;;;9.73;;
48317;SDS011;34127;47.412;9.730;2022-07-23T00:45:26;16.63;;;11.48;;
48317;SDS011;34127;47.412;9.730;2022-07-23T00:47:52;16.50;;;11.68;;
48317;SDS011;34127;47.412;9.730;2022-07-23T00:50:18;17.25;;;11.73;;
48317;SDS011;34127;47.412;9.730;2022-07-23T00:52:44;20.40;;;13.23;;
48317;SDS011;34127;47.412;9.730;2022-07-23T00:55:10;19.10;;;13.35;;
48317;SDS011;34127;47.412;9.730;2022-07-23T00:57:38;19.98;;;13.25;;
48317;SDS011;34127;47.412;9.730;2022-07-23T01:00:05;18.33;;;13.05;;
48317;SDS011;34127;47.412;9.730;2022-07-23T01:02:32;14.82;;;12.20;;
48317;SDS011;34127;47.412;9.730;2022-07-23T01:04:58;17.88;;;11.98;;
48317;SDS011;34127;47.412;9.730;2022-07-23T01:07:24;14.27;;;11.10;;
48317;SDS011;34127;47.412;9.730;2022-07-23T01:09:50;19.90;;;12.90;;
48317;SDS011;34127;47.412;9.730;2022-07-23T01:12:17;15.48;;;11.60;;
48317;SDS011;34127;47.412;9.730;2022-07-23T01:14:43;15.15;;;12.38;;
48317;SDS011;34127;47.412;9.730;2022-07-23T01:17:09;15.80;;;12.45;;
48317;SDS011;34127;47.412;9.730;2022-07-23T01:19:35;17.15;;;12.82;;
48317;SDS011;34127;47.412;9.730;2022-07-23T01:22:02;15.55;;;12.75;;
48317;SDS011;34127;47.412;9.730;2022-07-23T01:24:29;16.70;;;12.70;;
48317;SDS011;34127;47.412;9.730;2022-07-23T01:26:55;18.73;;;12.90;;
48317;SDS011;34127;47.412;9.730;2022-07-23T01:29:21;18.25;;;12.00;;
48317;SDS011;34127;47.412;9.730;2022-07-23T01:31:48;15.80;;;11.75;;
48317;SDS011;34127;47.412;9.730;2022-07-23T01:34:14;17.63;;;12.27;;
48317;SDS011;34127;47.412;9.730;2022-07-23T01:36:40;19.38;;;15.63;;
48317;SDS011;34127;47.412;9.730;2022-07-23T01:39:06;21.55;;;16.23;;
48317;SDS011;34127;47.412;9.730;2022-07-23T01:41:33;19.02;;;15.13;;
48317;SDS011;34127;47.412;9.730;2022-07-23T01:43:59;22.02;;;14.82;;
48317;SDS011;34127;47.412;9.730;2022-07-23T01:46:25;19.42;;;15.73;;
48317;SDS011;34127;47.412;9.730;2022-07-23T01:48:51;19.90;;;16.02;;
48317;SDS011;34127;47.412;9.730;2022-07-23T01:51:18;20.23;;;15.35;;
48317;SDS011;34127;47.412;9.730;2022-07-23T01:53:44;22.95;;;16.65;;
48317;SDS011;34127;47.412;9.730;2022-07-23T01:56:10;21.92;;;16.33;;
48317;SDS011;34127;47.412;9.730;2022-07-23T01:58:36;21.38;;;16.23;;
48317;SDS011;34127;47.412;9.730;2022-07-23T02:01:02;24.52;;;16.67;;
48317;SDS011;34127;47.412;9.730;2022-07-23T02:03:28;22.25;;;17.38;;
48317;SDS011;34127;47.412;9.730;2022-07-23T02:05:55;22.75;;;16.92;;
48317;SDS011;34127;47.412;9.730;2022-07-23T02:08:21;23.80;;;17.90;;
48317;SDS011;34127;47.412;9.730;2022-07-23T02:10:47;25.70;;;18.67;;
48317;SDS011;34127;47.412;9.730;2022-07-23T02:13:13;23.15;;;18.10;;
48317;SDS011;34127;47.412;9.730;2022-07-23T02:15:40;20.55;;;16.27;;
48317;SDS011;34127;47.412;9.730;2022-07-23T02:18:06;20.40;;;16.73;;
48317;SDS011;34127;47.412;9.730;2022-07-23T02:20:33;22.38;;;17.25;;
48317;SDS011;34127;47.412;9.730;2022-07-23T02:22:59;26.58;;;17.52;;
48317;SDS011;34127;47.412;9.730;2022-07-23T02:25:25;21.50;;;17.38;;
48317;SDS011;34127;47.412;9.730;2022-07-23T02:27:51;22.55;;;17.08;;
48317;SDS011;34127;47.412;9.730;2022-07-23T02:30:17;21.30;;;16.58;;
48317;SDS011;34127;47.412;9.730;2022-07-23T02:32:43;22.92;;;18.55;;
48317;SDS011;34127;47.412;9.730;2022-07-23T02:35:09;24.30;;;17.80;;
48317;SDS011;34127;47.412;9.730;2022-07-23T02:37:36;23.17;;;16.77;;
48317;SDS011;34127;47.412;9.730;2022-07-23T02:40:02;23.70;;;17.23;;
48317;SDS011;34127;47.412;9.730;2022-07-23T02:42:28;22.40;;;17.92;;
48317;SDS011;34127;47.412;9.730;2022-07-23T02:44:54;22.77;;;17.10;;
48317;SDS011;34127;47.412;9.730;2022-07-23T02:47:20;24.48;;;17.98;;
48317;SDS011;34127;47.412;9.730;2022-07-23T02:49:46;25.83;;;18.15;;
48317;SDS011;34127;47.412;9.730;2022-07-23T02:52:12;22.52;;;17.45;;
48317;SDS011;34127;47.412;9.730;2022-07-23T02:54:38;22.25;;;16.83;;
48317;SDS011;34127;47.412;9.730;2022-07-23T02:57:05;22.40;;;17.85;;
48317;SDS011;34127;47.412;9.730;2022-07-23T02:59:31;21.83;;;18.27;;
48317;SDS011;34127;47.412;9.730;2022-07-23T03:01:57;27.75;;;19.45;;
48317;SDS011;34127;47.412;9.730;2022-07-23T03:04:23;28.70;;;20.15;;
48317;SDS011;34127;47.412;9.730;2022-07-23T03:06:49;24.50;;;19.40;;
48317;SDS011;34127;47.412;9.730;2022-07-23T03:09:15;23.90;;;18.63;;
48317;SDS011;34127;47.412;9.730;2022-07-23T03:11:41;26.17;;;19.05;;
48317;SDS011;34127;47.412;9.730;2022-07-23T03:14:07;25.23;;;19.73;;
48317;SDS011;34127;47.412;9.730;2022-07-23T03:16:34;25.25;;;18.27;;
48317;SDS011;34127;47.412;9.730;2022-07-23T03:19:00;24.05;;;18.95;;
48317;SDS011;34127;47.412;9.730;2022-07-23T03:21:26;23.65;;;17.67;;
48317;SDS011;34127;47.412;9.730;2022-07-23T03:23:52;22.48;;;17.23;;
48317;SDS011;34127;47.412;9.730;2022-07-23T03:26:18;20.40;;;15.77;;
48317;SDS011;34127;47.412;9.730;2022-07-23T03:28:44;17.60;;;15.55;;
48317;SDS011;34127;47.412;9.730;2022-07-23T03:31:10;19.77;;;15.45;;
48317;SDS011;34127;47.412;9.730;2022-07-23T03:33:36;21.75;;;16.00;;
48317;SDS011;34127;47.412;9.730;2022-07-23T03:36:02;22.33;;;15.90;;
48317;SDS011;34127;47.412;9.730;2022-07-23T03:38:29;17.00;;;14.10;;
48317;SDS011;34127;47.412;9.730;2022-07-23T03:40:55;16.13;;;12.60;;
48317;SDS011;34127;47.412;9.730;2022-07-23T03:43:21;16.35;;;13.57;;
48317;SDS011;34127;47.412;9.730;2022-07-23T03:45:49;12.23;;;10.93;;
48317;SDS011;34127;47.412;9.730;2022-07-23T03:48:15;15.25;;;9.35;;
48317;SDS011;34127;47.412;9.730;2022-07-23T03:50:41;12.48;;;8.93;;
48317;SDS011;34127;47.412;9.730;2022-07-23T03:53:08;11.20;;;9.10;;
48317;SDS011;34127;47.412;9.730;2022-07-23T03:55:34;13.65;;;9.27;;
48317;SDS011;34127;47.412;9.730;2022-07-23T03:58:00;11.75;;;9.60;;
48317;SDS011;34127;47.412;9.730;2022-07-23T04:00:26;10.40;;;8.65;;
48317;SDS011;34127;47.412;9.730;2022-07-23T04:02:52;11.50;;;9.52;;
48317;SDS011;34127;47.412;9.730;2022-07-23T04:05:18;10.32;;;9.10;;
48317;SDS011;34127;47.412;9.730;2022-07-23T04:07:44;10.40;;;8.40;;
48317;SDS011;34127;47.412;9.730;2022-07-23T04:10:10;8.70;;;7.63;;
48317;SDS011;34127;47.412;9.730;2022-07-23T04:12:37;9.32;;;7.18;;
48317;SDS011;34127;47.412;9.730;2022-07-23T04:15:03;9.07;;;7.72;;
48317;SDS011;34127;47.412;9.730;2022-07-23T04:17:29;10.13;;;8.45;;
48317;SDS011;34127;47.412;9.730;2022-07-23T04:19:55;11.68;;;7.80;;
48317;SDS011;34127;47.412;9.730;2022-07-23T04:22:21;8.77;;;7.40;;
48317;SDS011;34127;47.412;9.730;2022-07-23T04:24:47;9.75;;;7.97;;
48317;SDS011;34127;47.412;9.730;2022-07-23T04:27:15;9.77;;;7.75;;
48317;SDS011;34127;47.412;9.730;2022-07-23T04:29:41;10.30;;;7.75;;
48317;SDS011;34127;47.412;9.730;2022-07-23T04:32:07;9.38;;;7.40;;
48317;SDS011;34127;47.412;9.730;2022-07-23T04:34:33;10.68;;;7.07;;
48317;SDS011;34127;47.412;9.730;2022-07-23T04:36:59;9.10;;;7.57;;
48317;SDS011;34127;47.412;9.730;2022-07-23T04:39:26;8.65;;;6.30;;
48317;SDS011;34127;47.412;9.730;2022-07-23T04:41:52;8.95;;;6.20;;
48317;SDS011;34127;47.412;9.730;2022-07-23T04:44:18;8.95;;;6.53;;
48317;SDS011;34127;47.412;9.730;2022-07-23T04:46:44;8.30;;;6.80;;
48317;SDS011;34127;47.412;9.730;2022-07-23T04:49:10;11.10;;;6.55;;
48317;SDS011;34127;47.412;9.730;2022-07-23T04:51:36;8.52;;;6.60;;
48317;SDS011;34127;47.412;9.730;2022-07-23T04:54:02;8.00;;;5.55;;
48317;SDS011;34127;47.412;9.730;2022-07-23T04:56:28;7.38;;;5.82;;
48317;SDS011;34127;47.412;9.730;2022-07-23T04:58:55;8.07;;;5.65;;
48317;SDS011;34127;47.412;9.730;2022-07-23T05:01:21;7.18;;;5.25;;
48317;SDS011;34127;47.412;9.730;2022-07-23T05:03:47;8.25;;;5.40;;
48317;SDS011;34127;47.412;9.730;2022-07-23T05:06:13;7.28;;;5.65;;
48317;SDS011;34127;47.412;9.730;2022-07-23T05:08:39;7.07;;;5.38;;
48317;SDS011;34127;47.412;9.730;2022-07-23T05:11:05;9.45;;;5.75;;
48317;SDS011;34127;47.412;9.730;2022-07-23T05:13:32;6.65;;;5.25;;
48317;SDS011;34127;47.412;9.730;2022-07-23T05:15:58;8.50;;;6.13;;
48317;SDS011;34127;47.412;9.730;2022-07-23T05:18:24;6.53;;;5.60;;
48317;SDS011;34127;47.412;9.730;2022-07-23T05:20:50;8.07;;;5.55;;
48317;SDS011;34127;47.412;9.730;2022-07-23T05:23:16;9.07;;;5.93;;
48317;SDS011;34127;47.412;9.730;2022-07-23T05:25:42;9.65;;;6.57;;
48317;SDS011;34127;47.412;9.730;2022-07-23T05:28:08;8.05;;;5.90;;
48317;SDS011;34127;47.412;9.730;2022-07-23T05:30:34;8.00;;;5.70;;
48317;SDS011;34127;47.412;9.730;2022-07-23T05:33:01;7.25;;;5.78;;
48317;SDS011;34127;47.412;9.730;2022-07-23T05:35:27;9.95;;;5.25;;
48317;SDS011;34127;47.412;9.730;2022-07-23T05:37:53;11.27;;;5.88;;
48317;SDS011;34127;47.412;9.730;2022-07-23T05:40:20;7.63;;;5.38;;
48317;SDS011;34127;47.412;9.730;2022-07-23T05:42:46;8.88;;;5.75;;
48317;SDS011;34127;47.412;9.730;2022-07-23T05:45:12;8.55;;;5.75;;
48317;SDS011;34127;47.412;9.730;2022-07-23T05:47:46;7.50;;;5.68;;
48317;SDS011;34127;47.412;9.730;2022-07-23T05:50:12;8.55;;;5.20;;
48317;SDS011;34127;47.412;9.730;2022-07-23T05:52:39;7.28;;;5.45;;
48317;SDS011;34127;47.412;9.730;2022-07-23T05:55:06;10.02;;;6.05;;
48317;SDS011;34127;47.412;9.730;2022-07-23T05:57:32;7.95;;;5.03;;
48317;SDS011;34127;47.412;9.730;2022-07-23T05:59:58;6.55;;;4.63;;
48317;SDS011;34127;47.412;9.730;2022-07-23T06:02:24;6.90;;;4.82;;
48317;SDS011;34127;47.412;9.730;2022-07-23T06:04:50;10.13;;;5.35;;
48317;SDS011;34127;47.412;9.730;2022-07-23T06:07:17;8.95;;;5.32;;
48317;SDS011;34127;47.412;9.730;2022-07-23T06:09:43;7.65;;;5.85;;
48317;SDS011;34127;47.412;9.730;2022-07-23T06:12:09;6.63;;;5.20;;
48317;SDS011;34127;47.412;9.730;2022-07-23T06:14:35;6.95;;;5.00;;
48317;SDS011;34127;47.412;9.730;2022-07-23T06:17:01;8.30;;;5.22;;
48317;SDS011;34127;47.412;9.730;2022-07-23T06:19:27;6.28;;;4.70;;
48317;SDS011;34127;47.412;9.730;2022-07-23T06:21:53;7.97;;;5.70;;
48317;SDS011;34127;47.412;9.730;2022-07-23T06:24:19;7.32;;;4.78;;
48317;SDS011;34127;47.412;9.730;2022-07-23T06:26:45;6.10;;;5.20;;
48317;SDS011;34127;47.412;9.730;2022-07-23T06:29:12;6.70;;;5.20;;
48317;SDS011;34127;47.412;9.730;2022-07-23T06:31:38;11.30;;;5.20;;
48317;SDS011;34127;47.412;9.730;2022-07-23T06:34:04;8.85;;;5.40;;
48317;SDS011;34127;47.412;9.730;2022-07-23T06:36:30;7.97;;;5.15;;
48317;SDS011;34127;47.412;9.730;2022-07-23T06:38:56;8.55;;;5.28;;
48317;SDS011;34127;47.412;9.730;2022-07-23T06:41:22;7.05;;;5.75;;
48317;SDS011;34127;47.412;9.730;2022-07-23T06:43:49;7.50;;;5.43;;
48317;SDS011;34127;47.412;9.730;2022-07-23T06:46:15;6.50;;;5.40;;
48317;SDS011;34127;47.412;9.730;2022-07-23T06:48:41;6.80;;;5.15;;
48317;SDS011;34127;47.412;9.730;2022-07-23T06:51:07;8.52;;;5.25;;
48317;SDS011;34127;47.412;9.730;2022-07-23T06:53:34;6.72;;;5.10;;
48317;SDS011;34127;47.412;9.730;2022-07-23T06:56:00;6.13;;;5.18;;
48317;SDS011;34127;47.412;9.730;2022-07-23T06:58:26;7.32;;;5.10;;
48317;SDS011;34127;47.412;9.730;2022-07-23T07:00:52;8.90;;;4.90;;
48317;SDS011;34127;47.412;9.730;2022-07-23T07:03:18;8.30;;;5.40;;
48317;SDS011;34127;47.412;9.730;2022-07-23T07:05:45;8.23;;;5.38;;
48317;SDS011;34127;47.412;9.730;2022-07-23T07:08:11;7.78;;;5.50;;
48317;SDS011;34127;47.412;9.730;2022-07-23T07:10:37;7.50;;;5.13;;
48317;SDS011;34127;47.412;9.730;2022-07-23T07:13:03;9.57;;;5.65;;
48317;SDS011;34127;47.412;9.730;2022-07-23T07:15:29;7.68;;;5.20;;
48317;SDS011;34127;47.412;9.730;2022-07-23T07:17:55;9.18;;;5.60;;
48317;SDS011;34127;47.412;9.730;2022-07-23T07:20:21;8.50;;;5.28;;
48317;SDS011;34127;47.412;9.730;2022-07-23T07:22:48;7.40;;;5.38;;
48317;SDS011;34127;47.412;9.730;2022-07-23T07:25:15;11.30;;;5.50;;
48317;SDS011;34127;47.412;9.730;2022-07-23T07:27:41;7.70;;;5.47;;
48317;SDS011;34127;47.412;9.730;2022-07-23T07:30:09;7.07;;;5.68;;
48317;SDS011;34127;47.412;9.730;2022-07-23T07:32:35;7.97;;;5.40;;
48317;SDS011;34127;47.412;9.730;2022-07-23T07:35:02;7.68;;;5.82;;
48317;SDS011;34127;47.412;9.730;2022-07-23T07:37:29;8.40;;;6.07;;
48317;SDS011;34127;47.412;9.730;2022-07-23T07:39:55;10.40;;;5.60;;
48317;SDS011;34127;47.412;9.730;2022-07-23T07:42:21;9.43;;;6.35;;
48317;SDS011;34127;47.412;9.730;2022-07-23T07:44:47;8.07;;;6.00;;
48317;SDS011;34127;47.412;9.730;2022-07-23T07:47:13;8.23;;;6.22;;
48317;SDS011;34127;47.412;9.730;2022-07-23T07:49:41;10.23;;;6.63;;
48317;SDS011;34127;47.412;9.730;2022-07-23T07:52:07;9.88;;;6.13;;
48317;SDS011;34127;47.412;9.730;2022-07-23T07:54:33;8.27;;;6.55;;
48317;SDS011;34127;47.412;9.730;2022-07-23T07:56:59;9.32;;;6.40;;
48317;SDS011;34127;47.412;9.730;2022-07-23T07:59:25;7.78;;;6.10;;
48317;SDS011;34127;47.412;9.730;2022-07-23T08:01:51;8.88;;;6.53;;
48317;SDS011;34127;47.412;9.730;2022-07-23T08:04:17;8.73;;;6.70;;
48317;SDS011;34127;47.412;9.730;2022-07-23T08:06:44;9.00;;;6.43;;
48317;SDS011;34127;47.412;9.730;2022-07-23T08:09:10;7.40;;;5.93;;
48317;SDS011;34127;47.412;9.730;2022-07-23T08:11:36;7.47;;;6.07;;
48317;SDS011;34127;47.412;9.730;2022-07-23T08:14:02;9.30;;;6.25;;
48317;SDS011;34127;47.412;9.730;2022-07-23T08:16:28;8.50;;;5.63;;
48317;SDS011;34127;47.412;9.730;2022-07-23T08:18:54;8.55;;;6.03;;
48317;SDS011;34127;47.412;9.730;2022-07-23T08:21:20;7.50;;;6.10;;
48317;SDS011;34127;47.412;9.730;2022-07-23T08:23:47;8.38;;;5.22;;
48317;SDS011;34127;47.412;9.730;2022-07-23T08:26:13;7.68;;;5.65;;
48317;SDS011;34127;47.412;9.730;2022-07-23T08:28:39;8.45;;;5.90;;
48317;SDS011;34127;47.412;9.730;2022-07-23T08:31:05;7.22;;;5.15;;
48317;SDS011;34127;47.412;9.730;2022-07-23T08:33:31;7.40;;;5.70;;
48317;SDS011;34127;47.412;9.730;2022-07-23T08:35:58;7.30;;;5.60;;
48317;SDS011;34127;47.412;9.730;2022-07-23T08:38:24;7.78;;;5.70;;
48317;SDS011;34127;47.412;9.730;2022-07-23T08:40:51;8.50;;;6.25;;
48317;SDS011;34127;47.412;9.730;2022-07-23T08:43:19;7.28;;;6.05;;
48317;SDS011;34127;47.412;9.730;2022-07-23T08:45:47;9.13;;;6.63;;
48317;SDS011;34127;47.412;9.730;2022-07-23T08:48:14;8.43;;;6.15;;
48317;SDS011;34127;47.412;9.730;2022-07-23T08:50:42;8.65;;;5.80;;
48317;SDS011;34127;47.412;9.730;2022-07-23T08:53:09;7.57;;;5.45;;
48317;SDS011;34127;47.412;9.730;2022-07-23T08:55:35;8.07;;;5.93;;
48317;SDS011;34127;47.412;9.730;2022-07-23T08:58:01;9.02;;;5.45;;
48317;SDS011;34127;47.412;9.730;2022-07-23T09:00:28;7.25;;;5.40;;
48317;SDS011;34127;47.412;9.730;2022-07-23T09:02:54;12.50;;;6.32;;
48317;SDS011;34127;47.412;9.730;2022-07-23T09:05:20;9.13;;;5.88;;
48317;SDS011;34127;47.412;9.730;2022-07-23T09:08:03;7.20;;;5.63;;
48317;SDS011;34127;47.412;9.730;2022-07-23T09:10:30;7.10;;;5.65;;
48317;SDS011;34127;47.412;9.730;2022-07-23T09:12:59;7.22;;;6.05;;
48317;SDS011;34127;47.412;9.730;2022-07-23T09:15:26;8.30;;;6.55;;
48317;SDS011;34127;47.412;9.730;2022-07-23T09:17:52;7.80;;;5.93;;
48317;SDS011;34127;47.412;9.730;2022-07-23T09:20:20;9.75;;;6.03;;
48317;SDS011;34127;47.412;9.730;2022-07-23T09:22:46;8.40;;;6.70;;
48317;SDS011;34127;47.412;9.730;2022-07-23T09:27:47;7.55;;;5.80;;
48317;SDS011;34127;47.412;9.730;2022-07-23T09:30:14;8.63;;;6.57;;
48317;SDS011;34127;47.412;9.730;2022-07-23T09:32:41;9.10;;;6.38;;
48317;SDS011;34127;47.412;9.730;2022-07-23T09:35:07;9.38;;;6.90;;
48317;SDS011;34127;47.412;9.730;2022-07-23T09:37:33;9.00;;;6.85;;
48317;SDS011;34127;47.412;9.730;2022-07-23T09:40:03;9.07;;;7.40;;
48317;SDS011;34127;47.412;9.730;2022-07-23T09:42:30;8.63;;;7.65;;
48317;SDS011;34127;47.412;9.730;2022-07-23T09:44:56;9.65;;;8.13;;
48317;SDS011;34127;47.412;9.730;2022-07-23T09:47:23;10.23;;;7.53;;
48317;SDS011;34127;47.412;9.730;2022-07-23T09:52:29;11.07;;;7.80;;
48317;SDS011;34127;47.412;9.730;2022-07-23T09:54:59;8.65;;;7.60;;
48317;SDS011;34127;47.412;9.730;2022-07-23T09:57:26;10.40;;;8.27;;
48317;SDS011;34127;47.412;9.730;2022-07-23T09:59:53;10.43;;;8.48;;
48317;SDS011;34127;47.412;9.730;2022-07-23T10:02:22;10.52;;;7.88;;
48317;SDS011;34127;47.412;9.730;2022-07-23T10:04:49;10.38;;;7.85;;
48317;SDS011;34127;47.412;9.730;2022-07-23T10:07:17;9.77;;;7.70;;
48317;SDS011;34127;47.412;9.730;2022-07-23T10:09:47;8.82;;;7.22;;
48317;SDS011;34127;47.412;9.730;2022-07-23T10:12:15;9.75;;;7.40;;
48317;SDS011;34127;47.412;9.730;2022-07-23T10:14:47;8.43;;;7.28;;
48317;SDS011;34127;47.412;9.730;2022-07-23T10:17:14;9.88;;;7.18;;
48317;SDS011;34127;47.412;9.730;2022-07-23T10:19:40;10.38;;;7.13;;
48317;SDS011;34127;47.412;9.730;2022-07-23T10:22:08;9.85;;;7.47;;
48317;SDS011;34127;47.412;9.730;2022-07-23T10:24:47;9.23;;;7.32;;
48317;SDS011;34127;47.412;9.730;2022-07-23T10:30:28;9.52;;;7.38;;
48317;SDS011;34127;47.412;9.730;2022-07-23T10:38:16;7.75;;;6.10;;
48317;SDS011;34127;47.412;9.730;2022-07-23T10:40:57;8.52;;;6.15;;
48317;SDS011;34127;47.412;9.730;2022-07-23T10:43:24;8.50;;;5.95;;
48317;SDS011;34127;47.412;9.730;2022-07-23T10:45:51;11.60;;;6.03;;
48317;SDS011;34127;47.412;9.730;2022-07-23T10:48:18;8.55;;;5.45;;
48317;SDS011;34127;47.412;9.730;2022-07-23T10:56:15;6.43;;;5.10;;
48317;SDS011;34127;47.412;9.730;2022-07-23T10:58:46;8.63;;;5.28;;
48317;SDS011;34127;47.412;9.730;2022-07-23T11:01:31;7.65;;;5.53;;
48317;SDS011;34127;47.412;9.730;2022-07-23T11:03:58;8.00;;;5.20;;
48317;SDS011;34127;47.412;9.730;2022-07-23T11:06:48;7.43;;;5.00;;
48317;SDS011;34127;47.412;9.730;2022-07-23T11:09:27;6.65;;;5.10;;
48317;SDS011;34127;47.412;9.730;2022-07-23T11:12:39;6.22;;;4.47;;
48317;SDS011;34127;47.412;9.730;2022-07-23T11:17:25;5.53;;;4.70;;
48317;SDS011;34127;47.412;9.730;2022-07-23T11:22:36;6.57;;;4.38;;
48317;SDS011;34127;47.412;9.730;2022-07-23T11:25:03;6.22;;;4.85;;
48317;SDS011;34127;47.412;9.730;2022-07-23T11:27:40;6.75;;;5.40;;
48317;SDS011;34127;47.412;9.730;2022-07-23T11:30:07;6.28;;;4.60;;
48317;SDS011;34127;47.412;9.730;2022-07-23T11:32:34;7.72;;;4.82;;
48317;SDS011;34127;47.412;9.730;2022-07-23T11:35:03;7.80;;;4.78;;
48317;SDS011;34127;47.412;9.730;2022-07-23T11:37:37;6.53;;;4.50;;
48317;SDS011;34127;47.412;9.730;2022-07-23T11:40:07;6.30;;;4.57;;
48317;SDS011;34127;47.412;9.730;2022-07-23T11:42:38;6.60;;;4.43;;
48317;SDS011;34127;47.412;9.730;2022-07-23T11:45:05;6.68;;;4.80;;
48317;SDS011;34127;47.412;9.730;2022-07-23T11:47:31;7.07;;;5.35;;
48317;SDS011;34127;47.412;9.730;2022-07-23T11:49:58;7.03;;;5.15;;
48317;SDS011;34127;47.412;9.730;2022-07-23T11:52:25;7.88;;;5.20;;
48317;SDS011;34127;47.412;9.730;2022-07-23T11:54:53;6.15;;;4.60;;
48317;SDS011;34127;47.412;9.730;2022-07-23T11:57:20;9.32;;;5.15;;
48317;SDS011;34127;47.412;9.730;2022-07-23T11:59:47;6.32;;;4.82;;
48317;SDS011;34127;47.412;9.730;2022-07-23T12:02:15;7.82;;;5.28;;
48317;SDS011;34127;47.412;9.730;2022-07-23T12:04:46;6.53;;;4.85;;
48317;SDS011;34127;47.412;9.730;2022-07-23T12:09:54;7.53;;;5.22;;
48317;SDS011;34127;47.412;9.730;2022-07-23T12:12:20;7.38;;;5.60;;
48317;SDS011;34127;47.412;9.730;2022-07-23T12:14:47;10.98;;;5.82;;
48317;SDS011;34127;47.412;9.730;2022-07-23T12:17:14;8.02;;;5.72;;
48317;SDS011;34127;47.412;9.730;2022-07-23T12:19:40;7.93;;;5.72;;
48317;SDS011;34127;47.412;9.730;2022-07-23T12:22:06;9.00;;;5.70;;
48317;SDS011;34127;47.412;9.730;2022-07-23T12:24:52;8.57;;;5.57;;
48317;SDS011;34127;47.412;9.730;2022-07-23T12:27:20;6.60;;;4.97;;
48317;SDS011;34127;47.412;9.730;2022-07-23T12:29:46;7.25;;;5.78;;
48317;SDS011;34127;47.412;9.730;2022-07-23T12:32:23;7.30;;;5.38;;
48317;SDS011;34127;47.412;9.730;2022-07-23T12:35:10;8.63;;;6.32;;
48317;SDS011;34127;47.412;9.730;2022-07-23T12:42:50;7.53;;;5.70;;
48317;SDS011;34127;47.412;9.730;2022-07-23T12:45:17;10.45;;;6.13;;
48317;SDS011;34127;47.412;9.730;2022-07-23T12:48:00;8.25;;;6.03;;
48317;SDS011;34127;47.412;9.730;2022-07-23T12:50:31;8.43;;;6.60;;
48317;SDS011;34127;47.412;9.730;2022-07-23T12:53:17;8.20;;;6.13;;
48317;SDS011;34127;47.412;9.730;2022-07-23T12:58:27;8.48;;;6.30;;
48317;SDS011;34127;47.412;9.730;2022-07-23T13:01:05;7.20;;;5.88;;
48317;SDS011;34127;47.412;9.730;2022-07-23T13:03:35;6.95;;;5.80;;
48317;SDS011;34127;47.412;9.730;2022-07-23T13:06:03;7.10;;;5.60;;
48317;SDS011;34127;47.412;9.730;2022-07-23T13:08:30;10.55;;;6.20;;
48317;SDS011;34127;47.412;9.730;2022-07-23T13:10:57;7.03;;;5.75;;
48317;SDS011;34127;47.412;9.730;2022-07-23T13:13:24;7.22;;;5.72;;
48317;SDS011;34127;47.412;9.730;2022-07-23T13:15:51;7.13;;;5.82;;
48317;SDS011;34127;47.412;9.730;2022-07-23T13:18:17;8.40;;;5.90;;
48317;SDS011;34127;47.412;9.730;2022-07-23T13:20:44;7.95;;;6.20;;
48317;SDS011;34127;47.412;9.730;2022-07-23T13:23:11;9.32;;;6.50;;
48317;SDS011;34127;47.412;9.730;2022-07-23T13:25:37;8.27;;;5.93;;
48317;SDS011;34127;47.412;9.730;2022-07-23T13:28:03;8.70;;;6.43;;
48317;SDS011;34127;47.412;9.730;2022-07-23T13:30:29;7.05;;;6.05;;
48317;SDS011;34127;47.412;9.730;2022-07-23T13:32:55;8.15;;;6.03;;
48317;SDS011;34127;47.412;9.730;2022-07-23T13:35:22;8.48;;;5.80;;
48317;SDS011;34127;47.412;9.730;2022-07-23T13:37:48;7.47;;;6.05;;
48317;SDS011;34127;47.412;9.730;2022-07-23T13:40:14;6.53;;;5.63;;
48317;SDS011;34127;47.412;9.730;2022-07-23T13:42:40;7.05;;;5.43;;
48317;SDS011;34127;47.412;9.730;2022-07-23T13:45:06;7.55;;;5.47;;
48317;SDS011;34127;47.412;9.730;2022-07-23T13:47:33;5.90;;;5.18;;
48317;SDS011;34127;47.412;9.730;2022-07-23T13:49:59;6.82;;;5.90;;
48317;SDS011;34127;47.412;9.730;2022-07-23T13:52:25;7.15;;;5.97;;
48317;SDS011;34127;47.412;9.730;2022-07-23T13:54:51;9.32;;;6.43;;
48317;SDS011;34127;47.412;9.730;2022-07-23T13:57:17;7.90;;;6.60;;
48317;SDS011;34127;47.412;9.730;2022-07-23T13:59:43;6.75;;;5.90;;
48317;SDS011;34127;47.412;9.730;2022-07-23T14:02:09;8.07;;;6.80;;
48317;SDS011;34127;47.412;9.730;2022-07-23T14:04:35;8.40;;;6.65;;
48317;SDS011;34127;47.412;9.730;2022-07-23T14:07:01;7.03;;;6.32;;
48317;SDS011;34127;47.412;9.730;2022-07-23T14:09:28;9.05;;;6.25;;
48317;SDS011;34127;47.412;9.730;2022-07-23T14:11:55;8.75;;;6.28;;
48317;SDS011;34127;47.412;9.730;2022-07-23T14:14:21;8.38;;;6.30;;
48317;SDS011;34127;47.412;9.730;2022-07-23T14:16:47;8.88;;;6.45;;
48317;SDS011;34127;47.412;9.730;2022-07-23T14:19:13;7.88;;;6.68;;
48317;SDS011;34127;47.412;9.730;2022-07-23T14:21:39;8.27;;;6.30;;
48317;SDS011;34127;47.412;9.730;2022-07-23T14:24:05;8.52;;;6.88;;
48317;SDS011;34127;47.412;9.730;2022-07-23T14:26:32;8.68;;;6.03;;
48317;SDS011;34127;47.412;9.730;2022-07-23T14:28:58;7.70;;;6.30;;
48317;SDS011;34127;47.412;9.730;2022-07-23T14:31:24;7.18;;;6.25;;
48317;SDS011;34127;47.412;9.730;2022-07-23T14:33:50;6.97;;;6.10;;
48317;SDS011;34127;47.412;9.730;2022-07-23T14:36:16;7.68;;;6.75;;
48317;SDS011;34127;47.412;9.730;2022-07-23T14:38:42;8.18;;;6.45;;
48317;SDS011;34127;47.412;9.730;2022-07-23T14:41:08;8.00;;;6.50;;
48317;SDS011;34127;47.412;9.730;2022-07-23T14:43:36;7.63;;;6.57;;
48317;SDS011;34127;47.412;9.730;2022-07-23T14:46:02;11.07;;;6.68;;
48317;SDS011;34127;47.412;9.730;2022-07-23T14:48:28;8.15;;;6.75;;
48317;SDS011;34127;47.412;9.730;2022-07-23T14:50:54;10.15;;;6.72;;
48317;SDS011;34127;47.412;9.730;2022-07-23T14:53:20;8.40;;;6.68;;
48317;SDS011;34127;47.412;9.730;2022-07-23T14:55:46;8.13;;;7.20;;
48317;SDS011;34127;47.412;9.730;2022-07-23T14:58:13;8.90;;;7.10;;
48317;SDS011;34127;47.412;9.730;2022-07-23T15:00:39;7.90;;;7.07;;
48317;SDS011;34127;47.412;9.730;2022-07-23T15:03:05;9.18;;;6.65;;
48317;SDS011;34127;47.412;9.730;2022-07-23T15:05:31;8.63;;;6.68;;
48317;SDS011;34127;47.412;9.730;2022-07-23T15:07:57;9.43;;;7.03;;
48317;SDS011;34127;47.412;9.730;2022-07-23T15:10:24;9.65;;;7.45;;
48317;SDS011;34127;47.412;9.730;2022-07-23T15:12:50;8.20;;;6.75;;
48317;SDS011;34127;47.412;9.730;2022-07-23T15:15:16;12.00;;;7.15;;